Weather at Show Low Regional Airport

Public forecast

Using degrees Fahrenheit for public forecast. Weather courtesy of forecast.io.

Current aviation weather report (METAR) for Show Low Regional Airport

Retrieved 2022/01/22 21:35 UTC (15 minutes ago):

KSOW 222135Z AUTO 32004KT 4SM -SN FEW002 BKN016 OVC045 03/M02 A3012 RMK AO2

Closest aviation forecast (TAF) to Show Low Regional Airport

Closest forecast is Winslow Lindbergh Regional Airport, 57.6 nm (106.6 km) NW. Retrieved 2022/01/22 18:39 UTC (3 hours ago):

TAF KINW 221736Z 2218/2318 05009KT P6SM SCT050 OVC080 FM230200 33007KT P6SM SCT050 BKN080